Time;durP1;ratioP1;P1;durP2;ratioP2;P2;SDS_P1;SDS_P2;PMS_P1;PMS_P2;Temp;Humidity;BMP_temperature;BMP_pressure;BME280_temperature;BME280_humidity;BME280_pressure;Samples;Min_cycle;Max_cycle;Signal;HPM_P1;HPM_P2
2022/04/29 00:00:51;;;;;;;16.57;10.73;;;4.70;1.00;;;;;;5114245;28;20356;-82
2022/04/29 00:03:18;;;;;;;19.57;12.07;;;4.60;1.00;;;;;;5114483;28;20196;-82
2022/04/29 00:05:46;;;;;;;17.47;11.50;;;4.60;1.00;;;;;;5113983;28;20236;-83
2022/04/29 00:08:13;;;;;;;15.87;10.20;;;4.80;1.00;;;;;;5114287;28;20191;-83
2022/04/29 00:10:42;;;;;;;18.57;10.70;;;4.70;1.00;;;;;;5114446;27;20225;-83
2022/04/29 00:13:12;;;;;;;16.60;9.67;;;4.80;1.00;;;;;;5114209;28;20239;-83
2022/04/29 00:15:40;;;;;;;16.03;8.43;;;4.60;1.00;;;;;;5114110;28;20218;-83
2022/04/29 00:18:08;;;;;;;16.57;9.77;;;4.70;1.00;;;;;;5114169;28;20186;-83
2022/04/29 00:20:35;;;;;;;16.13;9.20;;;4.70;1.00;;;;;;5113857;28;20245;-82
2022/04/29 00:23:02;;;;;;;16.47;9.40;;;4.70;1.00;;;;;;5113610;28;20556;-83
2022/04/29 00:25:30;;;;;;;15.57;9.97;;;4.70;1.00;;;;;;5114127;28;20286;-83
2022/04/29 00:27:58;;;;;;;15.67;9.27;;;4.50;99.90;;;;;;5114213;28;20191;-82
2022/04/29 00:30:24;;;;;;;16.97;10.27;;;4.70;59.80;;;;;;5113768;28;20711;-83
2022/04/29 00:32:53;;;;;;;16.93;10.03;;;4.60;58.70;;;;;;5113364;28;20505;-83
2022/04/29 00:35:20;;;;;;;14.10;9.33;;;4.60;89.30;;;;;;5113709;28;20231;-83
2022/04/29 00:37:49;;;;;;;16.73;10.27;;;4.50;25.60;;;;;;5113499;28;20233;-83
2022/04/29 00:40:17;;;;;;;15.57;9.37;;;4.50;72.60;;;;;;5113191;28;20751;-82
2022/04/29 00:42:45;;;;;;;14.13;9.23;;;4.60;51.10;;;;;;5113300;28;20194;-83
2022/04/29 00:45:13;;;;;;;14.60;9.13;;;4.60;12.80;;;;;;5113654;28;20293;-83
2022/04/29 00:47:40;;;;;;;13.43;9.00;;;4.60;38.40;;;;;;5113478;28;20196;-82
2022/04/29 00:50:09;;;;;;;14.77;9.10;;;4.40;53.40;;;;;;5113193;28;20222;-83
2022/04/29 00:52:39;;;;;;;15.60;8.50;;;4.40;99.90;;;;;;5113109;28;20225;-83
2022/04/29 00:55:10;;;;;;;14.57;9.40;;;4.40;31.60;;;;;;5113576;28;20223;-82
2022/04/29 00:57:42;;;;;;;14.17;8.50;;;4.50;99.90;;;;;;5113397;28;20261;-84
2022/04/29 01:00:11;;;;;;;14.20;9.03;;;4.40;1.00;;;;;;5113032;28;20195;-85
2022/04/29 01:02:41;;;;;;;16.53;9.17;;;4.40;1.00;;;;;;5112120;28;20545;-84
2022/04/29 01:05:12;;;;;;;16.23;9.47;;;4.50;99.90;;;;;;5113605;28;20184;-82
2022/04/29 01:07:42;;;;;;;14.47;8.00;;;4.50;99.90;;;;;;5098882;28;20197;-83
2022/04/29 01:10:12;;;;;;;15.20;9.47;;;4.40;99.90;;;;;;5092767;28;20231;-83
2022/04/29 01:12:42;;;;;;;18.27;9.77;;;4.30;20.40;;;;;;5092739;28;20192;-82
2022/04/29 01:15:12;;;;;;;13.70;8.77;;;4.40;1.00;;;;;;5092819;28;20270;-83
2022/04/29 01:17:43;;;;;;;16.80;9.80;;;4.50;85.10;;;;;;5092758;28;20592;-83
2022/04/29 01:20:15;;;;;;;15.03;9.63;;;4.30;71.40;;;;;;5092578;28;20219;-83
2022/04/29 01:22:43;;;;;;;12.30;7.27;;;4.40;98.00;;;;;;5112650;28;20631;-83
2022/04/29 01:25:11;;;;;;;12.33;7.33;;;4.50;91.80;;;;;;5112628;28;20637;-83
2022/04/29 01:27:38;;;;;;;15.37;8.50;;;4.30;73.40;;;;;;5112885;28;20219;-83
2022/04/29 01:30:08;;;;;;;14.93;9.47;;;4.40;27.60;;;;;;5112309;28;20250;-83
2022/04/29 01:32:36;;;;;;;13.00;8.50;;;4.30;79.60;;;;;;5112738;28;20279;-85
2022/04/29 01:35:04;;;;;;;16.30;8.20;;;4.20;83.30;;;;;;5112610;28;20227;-83
2022/04/29 01:37:31;;;;;;;14.77;8.33;;;4.30;53.30;;;;;;5112742;28;20220;-82
2022/04/29 01:40:00;;;;;;;13.50;8.37;;;4.30;44.00;;;;;;5112790;28;20251;-82
2022/04/29 01:42:27;;;;;;;14.63;8.57;;;4.30;91.40;;;;;;5112755;28;20226;-85
2022/04/29 01:44:54;;;;;;;20.30;9.43;;;4.20;82.10;;;;;;5112799;28;20235;-83
2022/04/29 01:47:21;;;;;;;15.80;8.80;;;4.20;84.20;;;;;;5112008;28;20679;-83
2022/04/29 01:49:48;;;;;;;15.50;8.77;;;4.10;78.30;;;;;;5112303;28;20194;-85
2022/04/29 01:52:15;;;;;;;17.93;8.67;;;4.20;35.90;;;;;;5112266;28;20230;-84
2022/04/29 01:54:42;;;;;;;16.20;9.57;;;4.30;27.20;;;;;;5112563;28;20222;-85
2022/04/29 01:57:10;;;;;;;17.70;9.63;;;4.20;46.10;;;;;;5112348;28;20198;-82
2022/04/29 01:59:38;;;;;;;20.33;9.17;;;4.20;49.50;;;;;;5112163;28;20248;-84
2022/04/29 02:02:06;;;;;;;15.80;9.00;;;4.00;27.70;;;;;;5112828;28;20230;-85
2022/04/29 02:04:34;;;;;;;16.73;8.83;;;4.00;8.80;;;;;;5112414;28;20669;-85
2022/04/29 02:07:01;;;;;;;19.00;9.23;;;3.90;30.40;;;;;;5112493;28;20199;-84
2022/04/29 02:09:28;;;;;;;18.27;9.47;;;3.90;92.10;;;;;;5112147;28;20197;-83
2022/04/29 02:12:07;;;;;;;22.47;10.93;;;4.00;33.60;;;;;;5112343;28;20195;-85
2022/04/29 02:14:37;;;;;;;21.57;11.40;;;4.00;1.00;;;;;;5114978;28;20174;-84
2022/04/29 02:17:05;;;;;;;25.17;14.87;;;4.00;1.00;;;;;;5116820;28;20218;-82
2022/04/29 02:19:33;;;;;;;26.07;15.33;;;3.90;1.00;;;;;;5116404;28;20191;-82
2022/04/29 02:22:01;;;;;;;22.83;15.70;;;3.80;1.00;;;;;;5115656;28;20211;-86
2022/04/29 02:24:29;;;;;;;24.83;15.63;;;4.00;1.00;;;;;;5116299;28;20281;-83
2022/04/29 02:26:59;;;;;;;27.57;16.93;;;3.80;1.00;;;;;;5116296;28;20274;-82
2022/04/29 02:29:27;;;;;;;27.67;18.00;;;3.90;1.00;;;;;;5115966;28;20697;-83
2022/04/29 02:31:55;;;;;;;29.80;20.13;;;3.80;1.00;;;;;;5115904;28;20558;-83
2022/04/29 02:34:23;;;;;;;31.60;19.20;;;4.00;1.00;;;;;;5116111;28;20278;-82
2022/04/29 02:36:51;;;;;;;32.00;19.77;;;3.90;43.70;;;;;;5116181;28;20194;-82
2022/04/29 02:39:17;;;;;;;32.83;20.73;;;3.90;99.90;;;;;;5115959;28;20222;-85
2022/04/29 02:41:45;;;;;;;28.30;19.37;;;3.70;99.90;;;;;;5115999;28;20307;-85
2022/04/29 02:44:12;;;;;;;28.67;20.03;;;3.80;99.90;;;;;;5115650;28;20696;-85
2022/04/29 02:47:06;;;;;;;28.57;19.93;;;3.70;99.90;;;;;;5115979;28;20198;-84
2022/04/29 02:49:28;;;;;;;32.87;20.70;;;3.60;99.90;;;;;;5115367;28;20547;-84
2022/04/29 02:51:55;;;;;;;28.53;19.40;;;3.70;99.90;;;;;;5115486;28;20282;-85
2022/04/29 02:54:23;;;;;;;29.53;19.17;;;3.60;35.60;;;;;;5094965;28;20222;-82
2022/04/29 02:56:50;;;;;;;30.50;18.50;;;3.70;1.00;;;;;;5095070;28;20196;-83
2022/04/29 02:59:17;;;;;;;26.10;17.97;;;3.60;1.00;;;;;;5094959;28;20191;-84
2022/04/29 03:01:44;;;;;;;23.67;16.37;;;3.70;1.00;;;;;;5095228;28;20223;-83
2022/04/29 03:04:11;;;;;;;24.17;15.83;;;3.70;1.00;;;;;;5094880;28;20641;-83
2022/04/29 03:06:39;;;;;;;25.70;17.67;;;3.60;1.00;;;;;;5095289;28;20278;-85
2022/04/29 03:09:06;;;;;;;24.33;16.17;;;3.60;1.00;;;;;;5094972;28;20114;-85
2022/04/29 03:11:33;;;;;;;25.67;16.30;;;3.60;1.00;;;;;;5109774;28;20720;-82
2022/04/29 03:14:00;;;;;;;20.97;15.93;;;3.50;1.00;;;;;;5115483;28;20616;-84
2022/04/29 03:16:27;;;;;;;24.70;15.73;;;3.50;1.00;;;;;;5115303;28;20702;-83
2022/04/29 03:18:55;;;;;;;24.30;15.43;;;3.50;1.00;;;;;;5113742;28;20317;-83
2022/04/29 03:21:21;;;;;;;23.10;15.87;;;3.50;1.00;;;;;;5115030;28;20301;-84
2022/04/29 03:23:50;;;;;;;21.50;13.77;;;3.20;1.00;;;;;;5115110;28;20198;-82
2022/04/29 03:26:17;;;;;;;22.90;13.87;;;3.30;1.00;;;;;;5113665;28;20277;-84
2022/04/29 03:28:44;;;;;;;23.33;14.57;;;3.30;1.00;;;;;;5114668;28;20614;-87
2022/04/29 03:31:11;;;;;;;23.27;15.80;;;3.30;1.00;;;;;;5111473;28;20281;-83
2022/04/29 03:33:38;;;;;;;25.30;14.90;;;3.40;1.00;;;;;;5115216;28;20238;-83
2022/04/29 03:36:05;;;;;;;25.23;15.67;;;3.60;1.00;;;;;;5107884;28;20215;-85
2022/04/29 03:38:32;;;;;;;22.60;14.07;;;3.60;1.00;;;;;;5094524;28;20230;-84
2022/04/29 03:41:01;;;;;;;27.47;13.77;;;3.50;1.00;;;;;;5094529;28;20211;-84
2022/04/29 03:43:28;;;;;;;23.93;13.73;;;3.60;1.00;;;;;;5094588;28;20219;-84
2022/04/29 03:45:55;;;;;;;26.63;14.23;;;3.80;1.00;;;;;;5094575;28;20198;-85
2022/04/29 03:48:22;;;;;;;22.27;13.47;;;3.90;1.00;;;;;;5094187;28;20192;-85
2022/04/29 03:50:49;;;;;;;23.07;13.70;;;4.00;1.00;;;;;;5107641;28;20216;-84
2022/04/29 03:53:16;;;;;;;27.13;15.00;;;3.90;1.00;;;;;;5114349;28;20230;-84
2022/04/29 03:55:43;;;;;;;21.97;13.43;;;4.00;1.00;;;;;;5114866;28;20280;-85
2022/04/29 03:58:12;;;;;;;20.03;14.80;;;4.20;1.00;;;;;;5114807;28;20280;-84
2022/04/29 04:00:40;;;;;;;23.73;14.00;;;4.10;1.00;;;;;;5114206;28;20277;-85
2022/04/29 04:03:07;;;;;;;20.07;13.20;;;4.20;1.00;;;;;;5114110;28;20596;-85
2022/04/29 04:05:34;;;;;;;22.77;14.13;;;4.30;1.00;;;;;;5114211;28;20956;-84
2022/04/29 04:08:01;;;;;;;23.30;13.83;;;4.40;1.00;;;;;;5114340;28;20227;-86
2022/04/29 04:10:28;;;;;;;22.60;13.30;;;4.60;1.00;;;;;;5113853;28;20218;-84
2022/04/29 04:12:55;;;;;;;20.90;13.90;;;4.70;1.00;;;;;;5114341;28;20193;-84
2022/04/29 04:15:24;;;;;;;22.77;14.07;;;5.00;1.00;;;;;;5113879;28;20702;-84
2022/04/29 04:17:51;;;;;;;26.43;13.03;;;5.10;1.00;;;;;;5113963;28;20205;-84
2022/04/29 04:20:20;;;;;;;20.27;12.30;;;5.30;1.00;;;;;;5113643;28;20280;-84
2022/04/29 04:22:47;;;;;;;18.20;11.97;;;5.50;1.00;;;;;;5113608;28;20635;-84
2022/04/29 04:25:15;;;;;;;16.97;11.87;;;5.60;1.00;;;;;;5114291;28;20277;-87
2022/04/29 04:27:42;;;;;;;17.50;11.13;;;6.00;97.50;;;;;;5114097;28;20218;-86
2022/04/29 04:30:10;;;;;;;17.80;11.47;;;6.60;99.90;;;;;;5114005;28;20258;-86
2022/04/29 04:32:39;;;;;;;25.60;18.17;;;7.70;1.00;;;;;;5114015;28;20281;-88
2022/04/29 04:35:07;;;;;;;17.90;10.73;;;8.90;99.90;;;;;;5113857;28;20204;-87
2022/04/29 04:37:34;;;;;;;13.90;9.37;;;10.10;99.90;;;;;;5112366;28;20628;-86
2022/04/29 04:40:03;;;;;;;13.93;9.00;;;10.80;1.00;;;;;;5113430;28;20621;-85
2022/04/29 04:42:29;;;;;;;18.17;10.60;;;11.50;1.00;;;;;;5113319;28;20631;-84
2022/04/29 04:44:56;;;;;;;15.23;9.73;;;12.20;99.90;;;;;;5103985;28;20229;-85
2022/04/29 04:47:24;;;;;;;13.83;8.87;;;13.10;99.90;;;;;;5092409;28;20221;-84
2022/04/29 04:49:52;;;;;;;13.87;9.47;;;13.80;73.50;;;;;;5099655;28;20224;-85
2022/04/29 04:52:19;;;;;;;14.53;9.60;;;14.40;1.00;;;;;;5113628;28;20667;-83
2022/04/29 04:54:46;;;;;;;15.15;8.98;;;15.10;99.90;;;;;;5113313;28;20235;-83
2022/04/29 04:57:13;;;;;;;16.17;9.10;;;15.90;1.00;;;;;;5113078;28;20229;-84
2022/04/29 04:59:40;;;;;;;15.43;9.00;;;16.70;1.00;;;;;;5113078;28;20230;-85
2022/04/29 05:02:06;;;;;;;14.52;8.80;;;17.50;1.00;;;;;;5112936;28;20778;-86
2022/04/29 05:04:33;;;;;;;15.55;9.85;;;18.30;1.00;;;;;;5114020;28;20226;-85
2022/04/29 05:07:03;;;;;;;20.02;10.95;;;19.20;1.00;;;;;;5112932;28;20279;-86
2022/04/29 05:09:30;;;;;;;16.75;10.55;;;20.10;1.00;;;;;;5112362;28;20128;-87
2022/04/29 05:11:58;;;;;;;20.10;11.05;;;21.00;1.00;;;;;;5112716;28;20226;-85
2022/04/29 05:14:24;;;;;;;32.60;14.38;;;22.00;1.00;;;;;;5112912;28;20278;-86
2022/04/29 05:16:51;;;;;;;65.72;24.13;;;22.90;1.00;;;;;;5113258;28;20603;-84
2022/04/29 05:19:18;;;;;;;27.15;14.80;;;23.70;1.00;;;;;;5112862;28;20244;-87
2022/04/29 05:21:46;;;;;;;21.05;11.50;;;24.50;1.00;;;;;;5112489;28;20207;-89
2022/04/29 05:24:14;;;;;;;24.83;13.50;;;25.10;1.00;;;;;;5113110;27;20230;-88
2022/04/29 05:26:41;;;;;;;13.20;8.60;;;25.60;1.00;;;;;;5112612;28;20255;-87
2022/04/29 05:29:08;;;;;;;13.90;10.13;;;26.20;1.00;;;;;;5112628;28;20617;-87
2022/04/29 05:31:35;;;;;;;17.55;10.02;;;26.80;1.00;;;;;;5112694;28;20271;-89
2022/04/29 05:34:05;;;;;;;20.70;11.18;;;27.30;1.00;;;;;;5112926;28;20621;-88
2022/04/29 05:36:32;;;;;;;12.30;8.80;;;27.70;1.00;;;;;;5112780;28;20226;-90
2022/04/29 05:44:30;;;;;;;11.25;6.97;;;28.40;1.00;;;;;;5112635;28;20228;-87
2022/04/29 05:47:07;;;;;;;16.58;7.53;;;28.60;1.00;;;;;;5117127;28;20243;-92
2022/04/29 05:52:44;;;;;;;13.10;7.18;;;29.00;1.00;;;;;;5126099;27;20601;-93
2022/04/29 05:55:27;;;;;;;22.95;12.85;;;29.30;1.00;;;;;;5135893;28;20194;-93
2022/04/29 06:01:21;;;;;;;22.42;12.43;;;29.90;1.00;;;;;;5056374;28;20210;-93
2022/04/29 06:04:05;;;;;;;17.77;11.15;;;30.30;1.00;;;;;;5098352;28;20179;-89
2022/04/29 06:06:43;;;;;;;30.25;7.88;;;30.60;1.00;;;;;;5135518;27;20255;-91
2022/04/29 06:09:19;;;;;;;11.57;5.93;;;30.80;1.00;;;;;;5136384;28;20219;-92
2022/04/29 06:12:19;;;;;;;13.23;7.20;;;31.00;1.00;;;;;;5135640;28;20287;-92
2022/04/29 06:15:32;;;;;;;28.38;7.68;;;31.50;1.00;;;;;;5135761;28;20248;-94
2022/04/29 06:18:18;;;;;;;;;;;;;;;;;;;;;
2022/04/29 06:21:03;;;;;;;;;;;;;;;;;;;;;
2022/04/29 06:23:41;;;;;;;9.23;5.82;;;32.00;1.00;;;;;;5135041;28;20186;-88
2022/04/29 06:26:18;;;;;;;7.95;5.30;;;32.00;1.00;;;;;;5134649;28;20226;-92
2022/04/29 06:29:07;;;;;;;7.68;5.57;;;32.20;1.00;;;;;;5135533;28;20208;-90
2022/04/29 06:31:36;;;;;;;8.50;5.40;;;32.70;1.00;;;;;;5135129;28;20237;-92
2022/04/29 06:34:37;;;;;;;18.20;8.82;;;33.00;1.00;;;;;;5134725;28;20210;-94
2022/04/29 06:37:07;;;;;;;12.13;6.85;;;33.30;1.00;;;;;;5073862;28;20241;-91
2022/04/29 06:40:00;;;;;;;;;;;;;;;;;;;;;
2022/04/29 06:42:57;;;;;;;8.52;3.72;;;33.90;1.00;;;;;;5114899;28;20189;-93
2022/04/29 06:45:28;;;;;;;6.50;3.17;;;34.10;1.00;;;;;;5115096;28;20167;-94
2022/04/29 06:48:21;;;;;;;24.88;4.13;;;34.30;1.00;;;;;;5115327;28;20167;-91
2022/04/29 06:54:22;;;;;;;5.28;3.05;;;35.00;1.00;;;;;;5033133;28;20197;-90
2022/04/29 06:57:07;;;;;;;;;;;;;;;;;;;;;
2022/04/29 06:59:57;;;;;;;5.72;2.90;;;35.00;1.00;;;;;;5114458;28;20191;-91
2022/04/29 07:02:38;;;;;;;6.30;2.88;;;34.90;1.00;;;;;;5117896;28;20199;-94
2022/04/29 07:08:03;;;;;;;5.68;2.75;;;34.90;1.00;;;;;;5115120;28;20210;-94
2022/04/29 07:10:40;;;;;;;16.38;2.63;;;35.00;1.00;;;;;;5117917;28;20233;-87
2022/04/29 07:13:14;;;;;;;8.10;2.35;;;35.00;1.00;;;;;;5117262;28;20213;-92
2022/04/29 07:15:48;;;;;;;4.72;2.40;;;35.00;1.00;;;;;;5117435;28;20185;-90
2022/04/29 07:18:16;;;;;;;4.35;2.50;;;34.90;1.00;;;;;;5117982;28;20190;-91
2022/04/29 07:20:49;;;;;;;8.23;3.15;;;34.70;1.00;;;;;;5130471;28;20198;-91
2022/04/29 07:23:22;;;;;;;5.03;2.20;;;34.80;1.00;;;;;;5138325;28;20194;-93
2022/04/29 07:26:05;;;;;;;5.07;1.83;;;34.60;1.00;;;;;;5137840;28;20208;-90
2022/04/29 07:28:44;;;;;;;10.68;2.75;;;34.70;1.00;;;;;;5137319;28;20181;-88
2022/04/29 07:31:15;;;;;;;8.82;2.30;;;34.80;1.00;;;;;;5137123;28;20179;-92
2022/04/29 07:33:51;;;;;;;5.75;4.50;;;34.80;1.00;;;;;;5137168;28;20214;-94
2022/04/29 07:42:36;;;;;;;19.80;9.98;;;34.40;1.00;;;;;;5138010;28;20235;-91
2022/04/29 07:45:13;;;;;;;11.35;5.63;;;34.20;1.00;;;;;;5137852;28;20198;-89
2022/04/29 07:47:45;;;;;;;25.48;13.15;;;34.00;1.00;;;;;;5137200;27;20223;-90
2022/04/29 07:50:14;;;;;;;26.00;14.93;;;33.80;1.00;;;;;;5137676;28;20212;-91
2022/04/29 07:52:47;;;;;;;8.80;5.03;;;33.30;1.00;;;;;;5137464;28;20233;-88
2022/04/29 07:55:17;;;;;;;27.65;15.00;;;32.70;1.00;;;;;;5138140;28;20182;-90
2022/04/29 07:57:50;;;;;;;19.55;9.38;;;32.20;1.00;;;;;;5137490;28;20190;-90
2022/04/29 08:00:24;;;;;;;10.07;2.78;;;31.90;1.00;;;;;;5137391;27;20203;-90
2022/04/29 08:02:57;;;;;;;;;;;31.60;1.00;;;;;;5137035;28;20191;-87
2022/04/29 08:05:28;;;;;;;7.88;3.50;;;31.10;1.00;;;;;;5137666;28;20195;-90
2022/04/29 08:08:15;;;;;;;5.32;2.90;;;30.50;1.00;;;;;;5137482;28;20203;-92
2022/04/29 08:10:50;;;;;;;13.45;7.25;;;30.10;1.00;;;;;;5137244;27;20210;-91
2022/04/29 08:13:24;;;;;;;8.40;3.90;;;29.50;1.00;;;;;;5136935;28;20182;-89
2022/04/29 08:15:53;;;;;;;18.80;10.57;;;28.90;1.00;;;;;;5136437;28;20203;-91
2022/04/29 08:18:29;;;;;;;7.03;2.70;;;28.80;1.00;;;;;;5137163;28;20199;-91
2022/04/29 08:21:04;;;;;;;6.43;3.20;;;29.00;1.00;;;;;;5137324;28;20183;-91
2022/04/29 08:23:34;;;;;;;4.18;2.97;;;29.20;1.00;;;;;;5137266;28;20261;-89
2022/04/29 08:26:02;;;;;;;6.07;2.50;;;29.20;1.00;;;;;;5136364;28;20540;-88
2022/04/29 08:28:33;;;;;;;4.82;2.63;;;29.20;1.00;;;;;;5136708;27;20202;-91
2022/04/29 08:31:08;;;;;;;5.93;2.08;;;29.20;1.00;;;;;;5136448;27;20213;-86
2022/04/29 08:33:38;;;;;;;4.93;1.83;;;29.40;1.00;;;;;;5136849;28;20210;-94
2022/04/29 08:36:09;;;;;;;5.35;2.20;;;29.80;1.00;;;;;;5136609;28;20218;-89
2022/04/29 08:38:49;;;;;;;6.30;3.10;;;30.10;1.00;;;;;;5137449;27;20220;-87
2022/04/29 08:41:22;;;;;;;5.97;2.10;;;30.30;1.00;;;;;;5137615;28;20247;-91
2022/04/29 08:43:54;;;;;;;6.95;2.35;;;30.40;1.00;;;;;;5136935;28;20206;-89
2022/04/29 08:46:25;;;;;;;3.40;1.88;;;30.60;1.00;;;;;;5136649;28;20183;-93
2022/04/29 08:49:00;;;;;;;4.60;2.30;;;30.90;1.00;;;;;;5136626;28;20217;-88
2022/04/29 08:51:35;;;;;;;3.65;1.58;;;31.30;1.00;;;;;;5136364;27;20185;-90
2022/04/29 08:54:06;;;;;;;4.55;1.27;;;31.50;1.00;;;;;;5136852;27;20193;-94
2022/04/29 08:59:32;;;;;;;5.15;1.85;;;31.80;1.00;;;;;;5136020;28;20343;-91
2022/04/29 09:02:05;;;;;;;5.82;1.80;;;31.60;1.00;;;;;;5136268;27;20872;-88
2022/04/29 09:04:36;;;;;;;2.95;1.77;;;31.50;1.00;;;;;;5137054;28;20243;-91
2022/04/29 09:07:09;;;;;;;4.22;2.47;;;31.40;1.00;;;;;;5136623;28;20181;-93
2022/04/29 09:09:43;;;;;;;3.78;1.80;;;31.40;1.00;;;;;;5136315;28;20192;-89
2022/04/29 09:12:22;;;;;;;3.33;1.70;;;31.70;1.00;;;;;;5136338;28;20207;-93
2022/04/29 09:15:09;;;;;;;3.05;1.90;;;31.80;1.00;;;;;;5135620;28;20208;-90
2022/04/29 09:17:38;;;;;;;5.05;3.05;;;31.50;1.00;;;;;;5134966;28;20651;-87
2022/04/29 09:20:16;;;;;;;2.30;1.40;;;31.20;1.00;;;;;;5135190;27;20201;-89
2022/04/29 09:22:57;;;;;;;4.20;1.70;;;30.80;1.00;;;;;;5135959;28;20195;-92
2022/04/29 09:25:38;;;;;;;8.82;5.88;;;30.30;1.00;;;;;;5135497;28;20224;-89
2022/04/29 09:28:05;;;;;;;10.55;2.33;;;29.70;1.00;;;;;;5115863;28;20229;-85
2022/04/29 09:30:46;;;;;;;3.72;1.95;;;29.20;1.00;;;;;;5130443;28;20230;-88
2022/04/29 09:33:25;;;;;;;3.30;1.70;;;28.40;1.00;;;;;;5135882;28;20298;-89
2022/04/29 09:35:54;;;;;;;5.78;2.15;;;27.50;1.00;;;;;;5134763;28;20169;-89
2022/04/29 09:41:08;;;;;;;6.00;3.83;;;26.20;1.00;;;;;;5135612;28;20158;-88
2022/04/29 09:43:38;;;;;;;18.45;10.18;;;25.70;1.00;;;;;;5135598;27;20186;-89
2022/04/29 09:46:18;;;;;;;4.68;1.73;;;25.10;1.00;;;;;;5135495;28;20197;-89
2022/04/29 09:49:07;;;;;;;7.20;3.47;;;24.50;1.00;;;;;;5135405;28;20173;-90
2022/04/29 09:51:55;;;;;;;5.20;1.60;;;24.20;1.00;;;;;;5131165;28;20217;-90
2022/04/29 09:54:25;;;;;;;3.22;1.20;;;24.10;1.00;;;;;;5135503;28;20225;-90
2022/04/29 09:57:10;;;;;;;8.43;5.30;;;24.10;1.00;;;;;;5135113;28;20205;-89
2022/04/29 09:59:40;;;;;;;3.63;1.80;;;24.10;1.00;;;;;;5134964;28;20202;-89
2022/04/29 10:02:12;;;;;;;7.95;2.20;;;24.10;1.00;;;;;;5135663;28;20179;-87
2022/04/29 10:04:45;;;;;;;7.50;4.30;;;24.00;1.00;;;;;;5135285;28;20183;-93
2022/04/29 10:07:13;;;;;;;2.53;1.20;;;24.00;1.00;;;;;;5135163;27;20198;-92
2022/04/29 10:09:50;;;;;;;6.80;2.15;;;24.00;1.00;;;;;;5135418;27;20190;-91
2022/04/29 10:12:19;;;;;;;5.68;1.60;;;24.10;1.00;;;;;;5135299;28;20190;-91
2022/04/29 10:14:50;;;;;;;4.00;1.80;;;24.10;1.00;;;;;;5135208;28;20199;-87
2022/04/29 10:22:53;;;;;;;4.40;1.38;;;23.80;1.00;;;;;;5134658;28;20205;-88
2022/04/29 10:25:26;;;;;;;4.82;2.30;;;23.70;1.00;;;;;;5135560;28;20191;-87
2022/04/29 10:27:57;;;;;;;3.65;1.27;;;23.50;1.00;;;;;;5134795;28;20166;-89
2022/04/29 10:30:30;;;;;;;2.63;1.35;;;23.20;1.00;;;;;;5135267;28;20252;-89
2022/04/29 10:33:05;;;;;;;7.38;1.70;;;23.00;1.00;;;;;;5135296;28;20606;-87
2022/04/29 10:35:57;;;;;;;4.93;1.90;;;22.90;1.00;;;;;;5137301;28;20188;-90
2022/04/29 10:38:27;;;;;;;2.40;1.40;;;22.80;1.00;;;;;;5135076;28;20195;-89
2022/04/29 10:41:12;;;;;;;4.28;1.48;;;22.70;1.00;;;;;;5139067;28;20190;-89
2022/04/29 10:43:40;;;;;;;9.70;6.40;;;22.70;1.00;;;;;;5138997;28;20247;-87
2022/04/29 10:46:20;;;;;;;2.80;1.40;;;22.70;1.00;;;;;;5138862;28;20199;-90
2022/04/29 10:48:53;;;;;;;5.05;1.63;;;22.80;1.00;;;;;;5138080;28;20167;-89
2022/04/29 10:51:47;;;;;;;6.47;1.40;;;22.70;1.00;;;;;;5138805;28;20190;-89
2022/04/29 10:54:17;;;;;;;6.43;1.80;;;22.70;1.00;;;;;;5138278;27;20223;-88
2022/04/29 10:56:45;;;;;;;2.55;1.27;;;22.60;1.00;;;;;;5139191;28;20190;-87
2022/04/29 10:59:15;;;;;;;2.70;1.23;;;22.70;1.00;;;;;;5138629;28;20215;-85
2022/04/29 11:01:48;;;;;;;3.22;1.60;;;22.60;1.00;;;;;;5138191;28;20198;-88
2022/04/29 11:04:47;;;;;;;2.55;1.35;;;22.60;1.00;;;;;;5138398;28;20179;-87
2022/04/29 11:07:35;;;;;;;2.58;1.40;;;22.50;1.00;;;;;;5138022;28;20210;-87
2022/04/29 11:10:03;;;;;;;4.28;1.58;;;22.40;1.00;;;;;;5138328;28;20220;-87
2022/04/29 11:12:32;;;;;;;3.13;1.13;;;22.30;1.00;;;;;;5137818;28;20223;-88
2022/04/29 11:15:16;;;;;;;10.30;1.80;;;22.10;1.00;;;;;;5138056;28;20191;-87
2022/04/29 11:17:45;;;;;;;2.97;1.30;;;22.00;1.00;;;;;;5138354;28;20171;-87
2022/04/29 11:20:19;;;;;;;3.30;1.30;;;21.90;1.00;;;;;;5137574;28;20200;-89
2022/04/29 11:25:57;;;;;;;4.70;1.50;;;21.80;1.00;;;;;;5138303;28;20197;-89
2022/04/29 11:28:25;;;;;;;2.47;1.20;;;21.90;1.00;;;;;;5137734;27;20196;-88
2022/04/29 11:31:01;;;;;;;3.88;1.58;;;21.80;1.00;;;;;;5137830;28;20241;-89
2022/04/29 11:33:28;;;;;;;9.32;2.20;;;21.70;1.00;;;;;;5124772;27;20203;-85
2022/04/29 11:36:04;;;;;;;7.95;1.80;;;21.70;1.00;;;;;;5114723;28;20194;-87
2022/04/29 11:38:32;;;;;;;3.28;1.45;;;21.60;1.00;;;;;;5114787;28;20649;-87
2022/04/29 11:41:02;;;;;;;1.60;1.20;;;21.60;1.00;;;;;;5114898;28;20194;-86
2022/04/29 11:43:29;;;;;;;3.92;1.48;;;21.60;1.00;;;;;;5114826;28;20230;-85
2022/04/29 11:46:02;;;;;;;7.80;1.92;;;21.60;1.00;;;;;;5114599;28;20195;-86
2022/04/29 11:48:29;;;;;;;3.80;1.55;;;21.60;1.00;;;;;;5114001;28;20179;-86
2022/04/29 11:50:58;;;;;;;3.45;2.05;;;21.60;1.00;;;;;;5114528;28;20235;-86
2022/04/29 11:53:28;;;;;;;4.47;1.63;;;21.60;1.00;;;;;;5114476;28;20380;-86
2022/04/29 11:55:59;;;;;;;3.97;1.70;;;21.40;1.00;;;;;;5120317;28;20199;-88
2022/04/29 11:58:48;;;;;;;5.80;1.88;;;21.20;1.00;;;;;;5137149;28;20190;-86
2022/04/29 12:01:24;;;;;;;3.10;1.55;;;21.10;1.00;;;;;;5136305;27;20220;-88
2022/04/29 12:03:59;;;;;;;6.90;1.90;;;21.10;1.00;;;;;;5137020;28;20189;-87
2022/04/29 12:06:29;;;;;;;2.58;1.58;;;21.20;1.00;;;;;;5137364;28;20194;-87
2022/04/29 12:08:58;;;;;;;4.35;1.80;;;21.20;1.00;;;;;;5117921;28;20183;-85
2022/04/29 12:11:32;;;;;;;3.83;1.75;;;21.30;1.00;;;;;;5119755;28;20229;-88
2022/04/29 12:14:21;;;;;;;10.52;2.63;;;21.30;1.00;;;;;;5136841;28;20210;-87
2022/04/29 12:16:52;;;;;;;4.78;2.17;;;21.30;1.00;;;;;;5136803;28;20186;-90
2022/04/29 12:19:22;;;;;;;5.57;1.88;;;21.30;1.00;;;;;;5137155;28;20240;-89
2022/04/29 12:22:00;;;;;;;4.75;1.80;;;21.20;1.00;;;;;;5136689;28;20194;-90
2022/04/29 12:24:43;;;;;;;3.45;1.60;;;21.20;1.00;;;;;;5136973;28;20183;-88
2022/04/29 12:27:11;;;;;;;3.55;1.60;;;21.10;1.00;;;;;;5137233;28;20206;-89
2022/04/29 12:34:48;;;;;;;4.88;1.77;;;21.10;1.00;;;;;;5136355;28;20260;-88
2022/04/29 12:35:26;;;;;;;5.82;1.92;;;21.20;1.00;;;;;;5137615;28;20201;-86
2022/04/29 12:38:00;;;;;;;5.35;2.08;;;21.20;1.00;;;;;;5136167;28;20183;-86
2022/04/29 12:40:34;;;;;;;4.10;2.00;;;21.10;1.00;;;;;;5136998;28;20175;-86
2022/04/29 12:43:16;;;;;;;9.65;2.47;;;21.10;1.00;;;;;;5136456;28;20190;-91
2022/04/29 12:45:46;;;;;;;3.38;1.52;;;21.10;1.00;;;;;;5137342;28;20186;-89
2022/04/29 12:48:17;;;;;;;3.63;1.77;;;21.10;1.00;;;;;;5136633;28;20199;-88
2022/04/29 12:50:49;;;;;;;5.18;1.58;;;21.20;1.00;;;;;;5136820;28;20211;-89
2022/04/29 12:53:20;;;;;;;146.18;13.52;;;21.20;1.00;;;;;;5136314;28;20218;-88
2022/04/29 12:55:56;;;;;;;5.88;2.00;;;21.20;1.00;;;;;;5136455;28;20247;-87
2022/04/29 12:58:27;;;;;;;4.95;1.77;;;21.20;1.00;;;;;;5135356;28;20613;-89
2022/04/29 13:01:08;;;;;;;6.85;1.83;;;21.10;1.00;;;;;;5136272;28;20181;-85
2022/04/29 13:03:38;;;;;;;4.65;1.70;;;21.00;1.00;;;;;;5136126;28;20179;-89
2022/04/29 13:06:28;;;;;;;5.15;2.15;;;21.00;1.00;;;;;;5135910;28;20201;-87
2022/04/29 13:09:01;;;;;;;4.57;1.50;;;21.00;1.00;;;;;;5136221;28;20242;-86
2022/04/29 13:11:32;;;;;;;3.75;1.70;;;21.00;1.00;;;;;;5135742;28;20225;-87
2022/04/29 13:14:09;;;;;;;2.60;1.52;;;21.00;1.00;;;;;;5135653;28;20221;-87
2022/04/29 13:16:37;;;;;;;4.03;1.70;;;21.10;1.00;;;;;;5135366;28;20575;-87
2022/04/29 13:19:12;;;;;;;5.22;2.33;;;21.10;1.00;;;;;;5135784;28;20198;-86
2022/04/29 13:21:40;;;;;;;7.43;2.80;;;21.00;1.00;;;;;;5135086;28;20206;-90
2022/04/29 13:24:15;;;;;;;5.28;2.10;;;20.90;1.00;;;;;;5135019;27;20228;-91
2022/04/29 13:27:01;;;;;;;10.15;9.02;;;20.80;1.00;;;;;;5136149;28;20197;-90
2022/04/29 13:29:29;;;;;;;9.32;7.25;;;20.80;1.00;;;;;;5135102;28;20248;-90
2022/04/29 13:32:05;;;;;;;4.60;2.15;;;20.80;1.00;;;;;;5134229;28;20205;-87
2022/04/29 13:34:39;;;;;;;4.50;1.98;;;20.70;1.00;;;;;;5134972;28;20205;-87
2022/04/29 13:37:09;;;;;;;6.03;3.45;;;20.60;1.00;;;;;;5134848;28;20176;-87
2022/04/29 13:39:41;;;;;;;13.27;10.32;;;20.70;1.00;;;;;;5135772;28;20254;-88
2022/04/29 13:42:16;;;;;;;7.38;5.10;;;20.60;1.00;;;;;;5135555;28;20243;-86
2022/04/29 13:44:53;;;;;;;3.60;2.10;;;20.70;1.00;;;;;;5135705;28;20175;-89
2022/04/29 13:47:26;;;;;;;4.07;2.13;;;20.60;1.00;;;;;;5135080;28;20248;-85
2022/04/29 13:50:01;;;;;;;3.90;1.80;;;20.50;1.00;;;;;;5135490;28;20187;-86
2022/04/29 13:55:19;;;;;;;4.90;2.00;;;20.40;1.00;;;;;;5134362;28;20208;-88
2022/04/29 13:57:48;;;;;;;3.97;2.30;;;20.30;1.00;;;;;;5119531;28;20711;-81
2022/04/29 14:00:16;;;;;;;5.82;2.15;;;20.30;1.00;;;;;;5112453;28;20198;-82
2022/04/29 14:02:43;;;;;;;3.35;2.08;;;20.20;1.00;;;;;;5112545;28;20570;-82
2022/04/29 14:05:11;;;;;;;5.35;2.10;;;20.20;1.00;;;;;;5111959;28;20198;-84